ADDS TAF Data INFO

IDs: Format: Raw Decoded Include METARs

Data at: 0031 UTC 28 Mar 2015

Region: TOP
KATL 280003Z 2800/2906 31012G22KT P6SM BKN080
  FM280300 32010KT P6SM BKN060
  FM280700 32008KT P6SM FEW070
  FM281400 32011KT P6SM SCT250
  FM290000 31007KT P6SM FEW250


KBOS 272335Z 2800/2906 VRB03KT P6SM SCT015 OVC050
  FM280300 34004KT P6SM OVC040
  FM280700 36006KT 6SM -SHSN OVC030
  FM280900 01008KT 3SM -SHSN BR OVC015
  FM281000 01009KT 3SM -SHSN BR OVC010
  FM281200 01010KT 2SM -SHSN BR OVC008
  FM281400 01011KT 1SM -SHSN BR OVC008


KBWI 272333Z 2800/2906 33007KT P6SM SKC
  FM280300 33009KT P6SM BKN090
  FM281100 32013KT P6SM BKN060
  PROB30 2814/2818 -SHSN
  FM282300 31011KT P6SM SCT050
  FM290200 32010KT P6SM SCT250


KCLE 272340Z 2800/2906 36014KT 6SM -SN OVC035
  TEMPO 2800/2804 5SM -SN BKN025
  FM280400 35010KT P6SM OVC035
  FM281500 34010KT P6SM SCT035


KCLT 272320Z 2800/2824 35004KT P6SM OVC050
  TEMPO 2800/2802 -SHRA
  FM281000 33006KT P6SM SCT220
  FM281800 31007G14KT P6SM SCT240


KCVG 272330Z 2800/2906 33010KT P6SM OVC050
  FM281100 35007KT P6SM FEW040
  FM290000 VRB03KT P6SM SKC


KDCA 272333Z 2800/2824 32010KT P6SM FEW060 BKN130
  FM280300 34009KT P6SM BKN090
  FM281400 32013KT P6SM BKN060
  PROB30 2814/2818 -SHSN
  FM282000 31013KT P6SM SCT050


KDEN 272320Z 2800/2906 32007KT P6SM SCT100 SCT200
  FM280200 27007KT P6SM FEW100 SCT200
  FM280400 21011KT P6SM SCT200
  FM281900 27012KT P6SM FEW100
  FM290100 23010KT P6SM FEW100


KDFW 272336Z 2800/2906 04005KT P6SM BKN300
  FM280600 11006KT P6SM BKN300
  FM281200 16007KT P6SM SCT150 SCT300
  FM281800 19012KT P6SM SCT120


KDTW 272320Z 2800/2906 36012KT P6SM BKN050
  FM280300 33007KT P6SM SCT050
  FM281800 29007KT P6SM SKC
  FM290000 VRB03KT P6SM SKC


KEWR 272340Z 2800/2906 34009KT P6SM BKN045
  FM280500 34012G18KT P6SM BKN120
  FM281300 34015G21KT P6SM FEW040 BKN070
  FM281900 33015G21KT P6SM VCSH BKN040
  FM282200 32017G25KT P6SM VCSH OVC040


KFLL 272334Z 2800/2824 30015G25KT P6SM SHRA BKN045
  FM280400 28012KT P6SM VCSH BKN035
  FM280800 32012KT P6SM SCT120
  FM281400 34015KT P6SM SKC


KIAD 272333Z 2800/2906 33006KT P6SM FEW050 BKN120
  FM280700 33009KT P6SM BKN090
  FM281300 32013KT P6SM BKN060
  PROB30 2814/2818 -SHSN
  FM282000 31013KT P6SM SCT050
  FM290100 32009KT P6SM SCT250


KIAH 272338Z 2800/2906 32006KT P6SM FEW250
  FM280200 VRB03KT P6SM SKC
  FM281400 22008KT P6SM SKC
  TEMPO 2814/2816 16006KT
  FM282200 18009KT P6SM SKC


KJFK 272340Z 2800/2906 35007KT P6SM BKN035
  FM280500 34014G20KT P6SM BKN120
  FM281300 33015G21KT P6SM FEW040 BKN070
  FM281900 32015G21KT P6SM VCSH BKN040
  FM282200 32017G25KT P6SM VCSH OVC040


KLAS 272320Z 2800/2824 08005KT P6SM SKC
  FM280200 22006KT P6SM SKC
  FM281600 VRB05KT P6SM SKC


KLAX 272334Z 2800/2906 26012KT P6SM SKC
  FM280400 26007KT P6SM SKC
  FM280800 VRB03KT 4SM BR FEW005
  FM281100 VRB03KT 1SM BR OVC003
  FM281600 VRB03KT 5SM HZ SCT007
  FM281800 21006KT 6SM HZ SCT250
  FM282000 25010KT P6SM SCT250
  FM290400 VRB03KT P6SM SCT250


KLGA 272340Z 2800/2824 34008KT P6SM BKN045
  FM280500 34013G20KT P6SM BKN120
  FM281300 34015G21KT P6SM FEW040 BKN070
  FM281900 33015G21KT P6SM VCSH BKN040
  FM282200 33017G25KT P6SM VCSH OVC040


KMCO 272347Z 2800/2824 29013KT P6SM BKN035 BKN100 OVC200
  FM280300 31014G21KT P6SM SCT100 BKN250
  FM280800 32011KT P6SM SCT250
  FM281800 30012G18KT P6SM SKC
  FM282200 30011KT P6SM FEW250


KMDW 272325Z 2800/2824 04012KT P6SM SKC
  FM280100 05005KT P6SM SKC
  FM281900 05011KT P6SM SKC


KMEM 272330Z 2800/2824 36011KT P6SM SCT040 BKN060
  FM280200 01006KT P6SM SKC
  FM280800 04004KT P6SM BKN100
  FM281400 09007KT P6SM VCSH BKN025 OVC050
  TEMPO 2815/2819 6SM -RA BR BKN018
  FM282200 11007KT P6SM BKN050


KMIA 272334Z 2800/2824 30010G20KT P6SM SHRA BKN035
  FM280400 28012KT P6SM VCSH BKN035
  FM280900 32012KT P6SM SCT120
  FM281400 33012KT P6SM SKC


KMSP 272339Z 2800/2906 20005KT P6SM BKN150
  FM280400 14003KT P6SM BKN100
  FM281000 13004KT P6SM SKC
  FM281800 16012G20KT P6SM SKC


KORD 272325Z 2800/2906 04012KT P6SM SKC
  FM280100 05005KT P6SM SKC
  FM281900 05011KT P6SM SKC
  FM290200 13005KT P6SM SKC


KPDX 272340Z 2800/2824 19014G24KT P6SM BKN045
  FM280300 20012KT P6SM -RA OVC040
  FM280500 20012KT P6SM -RA BKN025 OVC040
  FM280800 23008KT P6SM -SHRA SCT025 BKN040
  FM281700 20006KT P6SM BKN050


KPHL 272334Z 2800/2906 34008KT P6SM BKN050
  FM280600 34012KT P6SM BKN050
  FM281200 33012G21KT P6SM VCSH BKN050
  FM281600 32015G25KT P6SM BKN060
  FM290200 33013G23KT P6SM SKC


KPHX 272326Z 2800/2824 28005KT P6SM SKC
  FM280700 10006KT P6SM SKC
  FM282000 27005KT P6SM FEW250


KPIT 272323Z 2800/2906 33012KT P6SM SCT025 BKN035
  TEMPO 2800/2802 1 1/2SM -SHSN BKN020
  FM280400 32010KT P6SM BKN035
  FM281500 30008KT P6SM SCT035


KSAN 272337Z 2800/2906 29009KT P6SM SKC
  FM280300 VRB04KT P6SM VCFG FEW003
  FM281000 VRB04KT 2SM BR BKN004
  TEMPO 2811/2815 1/2SM FG BKN001
  FM281600 VRB04KT P6SM SKC
  FM281900 28011KT P6SM SKC
  FM290200 VRB05KT P6SM FEW008


KSEA 272320Z 2800/2906 24010KT P6SM SCT040 BKN100
  FM280300 22012KT P6SM BKN040 OVC080
  TEMPO 2804/2808 -RA OVC030
  FM280800 22012KT P6SM -SHRA BKN020 BKN050
  FM281200 22010KT P6SM VCSH BKN030
  FM281800 23007KT P6SM SCT040


KSFO 272320Z 2800/2906 28022G30KT P6SM SCT010
  TEMPO 2803/2806 BKN010
  FM280600 28020G28KT P6SM OVC008
  FM281000 28012G18KT P6SM OVC012
  FM281500 28010KT P6SM SCT015
  FM281800 28020G28KT P6SM FEW030


KSLC 272320Z 2800/2906 30007KT P6SM SKC
  FM280400 15006KT P6SM SKC
  FM281100 18010KT P6SM SKC
  FM281900 29012KT P6SM SKC
  FM290200 33009KT P6SM SKC


KSTL 272322Z 2800/2906 02005KT P6SM SCT250
  FM280600 09005KT P6SM SCT050 OVC080
  FM281700 14006KT P6SM SCT120


KTPA 272336Z 2800/2824 28013G20KT P6SM SCT019 BKN100
  TEMPO 2800/2802 BKN019
  FM280400 30009KT P6SM BKN250
  FM281800 31013KT P6SM FEW250
  FM282300 32009KT P6SM FEW250